sensor_id;sensor_type;location;lat;lon;timestamp;P1;durP1;ratioP1;P2;durP2;ratioP2
74614;SDS011;63121;51.458;-0.110;2023-05-07T00:01:30;7.47;;;3.00;;
74614;SDS011;63121;51.458;-0.110;2023-05-07T00:03:56;9.27;;;2.70;;
74614;SDS011;63121;51.458;-0.110;2023-05-07T00:06:21;10.27;;;3.08;;
74614;SDS011;63121;51.458;-0.110;2023-05-07T00:08:47;7.97;;;3.00;;
74614;SDS011;63121;51.458;-0.110;2023-05-07T00:11:13;9.50;;;3.00;;
74614;SDS011;63121;51.458;-0.110;2023-05-07T00:13:38;11.73;;;3.10;;
74614;SDS011;63121;51.458;-0.110;2023-05-07T00:16:04;7.83;;;2.90;;
74614;SDS011;63121;51.458;-0.110;2023-05-07T00:18:30;8.70;;;2.83;;
74614;SDS011;63121;51.458;-0.110;2023-05-07T00:20:55;7.20;;;2.63;;
74614;SDS011;63121;51.458;-0.110;2023-05-07T00:23:21;7.55;;;2.53;;
74614;SDS011;63121;51.458;-0.110;2023-05-07T00:25:47;9.13;;;2.50;;
74614;SDS011;63121;51.458;-0.110;2023-05-07T00:28:13;8.80;;;2.95;;
74614;SDS011;63121;51.458;-0.110;2023-05-07T00:30:38;8.52;;;2.60;;
74614;SDS011;63121;51.458;-0.110;2023-05-07T00:33:03;9.18;;;2.60;;
74614;SDS011;63121;51.458;-0.110;2023-05-07T00:35:29;7.80;;;3.10;;
74614;SDS011;63121;51.458;-0.110;2023-05-07T00:37:55;8.10;;;2.55;;
74614;SDS011;63121;51.458;-0.110;2023-05-07T00:40:20;6.55;;;2.67;;
74614;SDS011;63121;51.458;-0.110;2023-05-07T00:42:46;8.85;;;2.80;;
74614;SDS011;63121;51.458;-0.110;2023-05-07T00:45:12;7.43;;;2.40;;
74614;SDS011;63121;51.458;-0.110;2023-05-07T00:47:38;6.75;;;1.95;;
74614;SDS011;63121;51.458;-0.110;2023-05-07T00:50:06;7.03;;;2.60;;
74614;SDS011;63121;51.458;-0.110;2023-05-07T00:52:32;8.60;;;2.90;;
74614;SDS011;63121;51.458;-0.110;2023-05-07T00:54:59;7.53;;;2.50;;
74614;SDS011;63121;51.458;-0.110;2023-05-07T00:57:29;8.00;;;2.72;;
74614;SDS011;63121;51.458;-0.110;2023-05-07T01:00:00;7.18;;;2.58;;
74614;SDS011;63121;51.458;-0.110;2023-05-07T01:02:26;6.68;;;2.63;;
74614;SDS011;63121;51.458;-0.110;2023-05-07T01:04:51;7.88;;;2.50;;
74614;SDS011;63121;51.458;-0.110;2023-05-07T01:07:16;8.37;;;3.20;;
74614;SDS011;63121;51.458;-0.110;2023-05-07T01:09:42;7.68;;;2.80;;
74614;SDS011;63121;51.458;-0.110;2023-05-07T01:12:07;9.27;;;2.97;;
74614;SDS011;63121;51.458;-0.110;2023-05-07T01:14:33;8.77;;;2.70;;
74614;SDS011;63121;51.458;-0.110;2023-05-07T01:16:59;7.32;;;2.80;;
74614;SDS011;63121;51.458;-0.110;2023-05-07T01:19:24;8.90;;;3.03;;
74614;SDS011;63121;51.458;-0.110;2023-05-07T01:21:50;7.82;;;3.20;;
74614;SDS011;63121;51.458;-0.110;2023-05-07T01:24:16;10.25;;;3.58;;
74614;SDS011;63121;51.458;-0.110;2023-05-07T01:26:43;7.88;;;3.03;;
74614;SDS011;63121;51.458;-0.110;2023-05-07T01:29:09;9.07;;;2.97;;
74614;SDS011;63121;51.458;-0.110;2023-05-07T01:31:35;9.05;;;3.75;;
74614;SDS011;63121;51.458;-0.110;2023-05-07T01:34:01;11.50;;;3.88;;
74614;SDS011;63121;51.458;-0.110;2023-05-07T01:36:29;9.73;;;3.97;;
74614;SDS011;63121;51.458;-0.110;2023-05-07T01:38:55;11.82;;;3.92;;
74614;SDS011;63121;51.458;-0.110;2023-05-07T01:41:22;9.52;;;3.67;;
74614;SDS011;63121;51.458;-0.110;2023-05-07T01:43:48;11.88;;;4.20;;
74614;SDS011;63121;51.458;-0.110;2023-05-07T01:46:16;9.27;;;3.33;;
74614;SDS011;63121;51.458;-0.110;2023-05-07T01:48:42;9.68;;;3.80;;
74614;SDS011;63121;51.458;-0.110;2023-05-07T01:51:10;11.00;;;3.38;;
74614;SDS011;63121;51.458;-0.110;2023-05-07T01:53:37;10.77;;;3.90;;
74614;SDS011;63121;51.458;-0.110;2023-05-07T01:56:03;10.40;;;3.85;;
74614;SDS011;63121;51.458;-0.110;2023-05-07T01:58:29;10.45;;;3.88;;
74614;SDS011;63121;51.458;-0.110;2023-05-07T02:00:54;10.75;;;3.50;;
74614;SDS011;63121;51.458;-0.110;2023-05-07T02:03:19;9.93;;;3.63;;
74614;SDS011;63121;51.458;-0.110;2023-05-07T02:05:45;11.07;;;3.83;;
74614;SDS011;63121;51.458;-0.110;2023-05-07T02:08:10;9.73;;;3.50;;
74614;SDS011;63121;51.458;-0.110;2023-05-07T02:10:35;9.33;;;3.70;;
74614;SDS011;63121;51.458;-0.110;2023-05-07T02:13:01;8.40;;;3.42;;
74614;SDS011;63121;51.458;-0.110;2023-05-07T02:15:27;10.70;;;3.83;;
74614;SDS011;63121;51.458;-0.110;2023-05-07T02:18:02;10.07;;;3.75;;
74614;SDS011;63121;51.458;-0.110;2023-05-07T02:20:29;10.55;;;3.72;;
74614;SDS011;63121;51.458;-0.110;2023-05-07T02:22:54;11.77;;;3.87;;
74614;SDS011;63121;51.458;-0.110;2023-05-07T02:25:20;11.48;;;3.78;;
74614;SDS011;63121;51.458;-0.110;2023-05-07T02:27:45;12.05;;;4.20;;
74614;SDS011;63121;51.458;-0.110;2023-05-07T02:30:11;9.30;;;3.85;;
74614;SDS011;63121;51.458;-0.110;2023-05-07T02:32:36;11.25;;;4.30;;
74614;SDS011;63121;51.458;-0.110;2023-05-07T02:35:02;10.33;;;3.60;;
74614;SDS011;63121;51.458;-0.110;2023-05-07T02:37:27;11.18;;;4.30;;
74614;SDS011;63121;51.458;-0.110;2023-05-07T02:39:52;10.10;;;4.03;;
74614;SDS011;63121;51.458;-0.110;2023-05-07T02:42:18;10.27;;;4.27;;
74614;SDS011;63121;51.458;-0.110;2023-05-07T02:44:43;10.80;;;3.57;;
74614;SDS011;63121;51.458;-0.110;2023-05-07T02:47:08;10.55;;;4.68;;
74614;SDS011;63121;51.458;-0.110;2023-05-07T02:49:34;10.73;;;4.05;;
74614;SDS011;63121;51.458;-0.110;2023-05-07T02:52:00;9.00;;;3.97;;
74614;SDS011;63121;51.458;-0.110;2023-05-07T02:54:25;11.40;;;4.00;;
74614;SDS011;63121;51.458;-0.110;2023-05-07T02:56:50;10.97;;;4.13;;
74614;SDS011;63121;51.458;-0.110;2023-05-07T02:59:16;10.95;;;4.53;;
74614;SDS011;63121;51.458;-0.110;2023-05-07T03:01:41;10.07;;;4.00;;
74614;SDS011;63121;51.458;-0.110;2023-05-07T03:04:09;10.80;;;3.88;;
74614;SDS011;63121;51.458;-0.110;2023-05-07T03:09:00;10.27;;;4.40;;
74614;SDS011;63121;51.458;-0.110;2023-05-07T03:11:26;11.17;;;4.23;;
74614;SDS011;63121;51.458;-0.110;2023-05-07T03:13:51;11.07;;;4.38;;
74614;SDS011;63121;51.458;-0.110;2023-05-07T03:16:16;10.90;;;4.23;;
74614;SDS011;63121;51.458;-0.110;2023-05-07T03:18:42;11.13;;;4.28;;
74614;SDS011;63121;51.458;-0.110;2023-05-07T03:21:07;10.23;;;4.10;;
74614;SDS011;63121;51.458;-0.110;2023-05-07T03:23:32;12.10;;;4.00;;
74614;SDS011;63121;51.458;-0.110;2023-05-07T03:25:58;9.80;;;4.03;;
74614;SDS011;63121;51.458;-0.110;2023-05-07T03:28:23;10.57;;;4.30;;
74614;SDS011;63121;51.458;-0.110;2023-05-07T03:30:48;12.00;;;4.30;;
74614;SDS011;63121;51.458;-0.110;2023-05-07T03:33:14;11.17;;;4.13;;
74614;SDS011;63121;51.458;-0.110;2023-05-07T03:35:39;11.75;;;4.35;;
74614;SDS011;63121;51.458;-0.110;2023-05-07T03:38:05;9.23;;;4.00;;
74614;SDS011;63121;51.458;-0.110;2023-05-07T03:40:30;11.82;;;4.18;;
74614;SDS011;63121;51.458;-0.110;2023-05-07T03:42:55;10.30;;;4.17;;
74614;SDS011;63121;51.458;-0.110;2023-05-07T03:45:21;10.77;;;4.10;;
74614;SDS011;63121;51.458;-0.110;2023-05-07T03:47:46;9.82;;;3.88;;
74614;SDS011;63121;51.458;-0.110;2023-05-07T03:50:11;10.83;;;4.03;;
74614;SDS011;63121;51.458;-0.110;2023-05-07T03:52:37;9.63;;;3.83;;
74614;SDS011;63121;51.458;-0.110;2023-05-07T03:55:02;10.70;;;4.70;;
74614;SDS011;63121;51.458;-0.110;2023-05-07T03:57:28;10.00;;;4.07;;
74614;SDS011;63121;51.458;-0.110;2023-05-07T03:59:53;9.90;;;4.00;;
74614;SDS011;63121;51.458;-0.110;2023-05-07T04:02:18;10.40;;;4.30;;
74614;SDS011;63121;51.458;-0.110;2023-05-07T04:04:43;10.33;;;3.63;;
74614;SDS011;63121;51.458;-0.110;2023-05-07T04:07:09;9.90;;;4.30;;
74614;SDS011;63121;51.458;-0.110;2023-05-07T04:09:34;10.48;;;4.00;;
74614;SDS011;63121;51.458;-0.110;2023-05-07T04:12:00;10.68;;;4.15;;
74614;SDS011;63121;51.458;-0.110;2023-05-07T04:14:26;9.77;;;3.78;;
74614;SDS011;63121;51.458;-0.110;2023-05-07T04:16:51;10.87;;;4.30;;
74614;SDS011;63121;51.458;-0.110;2023-05-07T04:19:16;10.37;;;3.93;;
74614;SDS011;63121;51.458;-0.110;2023-05-07T04:21:42;8.77;;;3.80;;
74614;SDS011;63121;51.458;-0.110;2023-05-07T04:24:08;9.05;;;3.60;;
74614;SDS011;63121;51.458;-0.110;2023-05-07T04:26:33;9.93;;;3.90;;
74614;SDS011;63121;51.458;-0.110;2023-05-07T04:28:59;9.55;;;4.25;;
74614;SDS011;63121;51.458;-0.110;2023-05-07T04:31:24;9.65;;;3.65;;
74614;SDS011;63121;51.458;-0.110;2023-05-07T04:33:50;10.13;;;4.40;;
74614;SDS011;63121;51.458;-0.110;2023-05-07T04:36:16;10.40;;;4.55;;
74614;SDS011;63121;51.458;-0.110;2023-05-07T04:38:42;11.68;;;4.50;;
74614;SDS011;63121;51.458;-0.110;2023-05-07T04:41:08;12.85;;;4.80;;
74614;SDS011;63121;51.458;-0.110;2023-05-07T04:43:34;12.02;;;4.75;;
74614;SDS011;63121;51.458;-0.110;2023-05-07T04:45:59;10.03;;;4.30;;
74614;SDS011;63121;51.458;-0.110;2023-05-07T04:48:24;11.63;;;4.97;;
74614;SDS011;63121;51.458;-0.110;2023-05-07T04:50:51;10.63;;;3.85;;
74614;SDS011;63121;51.458;-0.110;2023-05-07T04:53:16;10.80;;;4.38;;
74614;SDS011;63121;51.458;-0.110;2023-05-07T04:55:43;10.85;;;4.53;;
74614;SDS011;63121;51.458;-0.110;2023-05-07T04:58:08;11.35;;;4.72;;
74614;SDS011;63121;51.458;-0.110;2023-05-07T05:00:34;11.70;;;4.63;;
74614;SDS011;63121;51.458;-0.110;2023-05-07T05:02:59;10.63;;;4.13;;
74614;SDS011;63121;51.458;-0.110;2023-05-07T05:05:24;13.50;;;5.10;;
74614;SDS011;63121;51.458;-0.110;2023-05-07T05:07:50;12.18;;;4.68;;
74614;SDS011;63121;51.458;-0.110;2023-05-07T05:10:16;13.77;;;5.15;;
74614;SDS011;63121;51.458;-0.110;2023-05-07T05:12:42;14.10;;;4.80;;
74614;SDS011;63121;51.458;-0.110;2023-05-07T05:15:07;12.52;;;4.53;;
74614;SDS011;63121;51.458;-0.110;2023-05-07T05:17:34;12.43;;;4.28;;
74614;SDS011;63121;51.458;-0.110;2023-05-07T05:20:01;11.38;;;4.45;;
74614;SDS011;63121;51.458;-0.110;2023-05-07T05:22:26;11.95;;;4.63;;
74614;SDS011;63121;51.458;-0.110;2023-05-07T05:24:54;11.90;;;4.90;;
74614;SDS011;63121;51.458;-0.110;2023-05-07T05:27:20;13.75;;;4.97;;
74614;SDS011;63121;51.458;-0.110;2023-05-07T05:29:45;12.23;;;4.33;;
74614;SDS011;63121;51.458;-0.110;2023-05-07T05:32:10;12.60;;;4.47;;
74614;SDS011;63121;51.458;-0.110;2023-05-07T05:34:36;11.55;;;4.53;;
74614;SDS011;63121;51.458;-0.110;2023-05-07T05:37:01;11.97;;;4.50;;
74614;SDS011;63121;51.458;-0.110;2023-05-07T05:39:26;12.45;;;4.43;;
74614;SDS011;63121;51.458;-0.110;2023-05-07T05:41:52;12.80;;;4.95;;
74614;SDS011;63121;51.458;-0.110;2023-05-07T05:44:17;11.43;;;4.80;;
74614;SDS011;63121;51.458;-0.110;2023-05-07T05:46:42;11.83;;;4.70;;
74614;SDS011;63121;51.458;-0.110;2023-05-07T05:49:08;15.88;;;5.03;;
74614;SDS011;63121;51.458;-0.110;2023-05-07T05:51:33;11.02;;;4.28;;
74614;SDS011;63121;51.458;-0.110;2023-05-07T05:53:58;11.67;;;4.77;;
74614;SDS011;63121;51.458;-0.110;2023-05-07T05:56:24;12.80;;;4.83;;
74614;SDS011;63121;51.458;-0.110;2023-05-07T05:58:49;12.32;;;4.63;;
74614;SDS011;63121;51.458;-0.110;2023-05-07T06:01:15;13.95;;;4.90;;
74614;SDS011;63121;51.458;-0.110;2023-05-07T06:03:41;13.02;;;4.20;;
74614;SDS011;63121;51.458;-0.110;2023-05-07T06:06:07;10.83;;;4.17;;
74614;SDS011;63121;51.458;-0.110;2023-05-07T06:08:32;13.60;;;4.77;;
74614;SDS011;63121;51.458;-0.110;2023-05-07T06:10:58;15.10;;;5.10;;
74614;SDS011;63121;51.458;-0.110;2023-05-07T06:13:23;12.95;;;4.75;;
74614;SDS011;63121;51.458;-0.110;2023-05-07T06:15:49;12.73;;;5.07;;
74614;SDS011;63121;51.458;-0.110;2023-05-07T06:18:14;12.52;;;4.47;;
74614;SDS011;63121;51.458;-0.110;2023-05-07T06:20:39;11.63;;;4.47;;
74614;SDS011;63121;51.458;-0.110;2023-05-07T06:23:05;12.50;;;4.97;;
74614;SDS011;63121;51.458;-0.110;2023-05-07T06:25:30;11.63;;;4.75;;
74614;SDS011;63121;51.458;-0.110;2023-05-07T06:27:56;13.50;;;4.93;;
74614;SDS011;63121;51.458;-0.110;2023-05-07T06:30:21;11.27;;;4.30;;
74614;SDS011;63121;51.458;-0.110;2023-05-07T06:32:46;10.18;;;4.18;;
74614;SDS011;63121;51.458;-0.110;2023-05-07T06:35:12;12.70;;;5.17;;
74614;SDS011;63121;51.458;-0.110;2023-05-07T06:37:37;11.75;;;4.40;;
74614;SDS011;63121;51.458;-0.110;2023-05-07T06:40:05;12.15;;;4.70;;
74614;SDS011;63121;51.458;-0.110;2023-05-07T06:42:31;10.93;;;4.38;;
74614;SDS011;63121;51.458;-0.110;2023-05-07T06:44:56;11.60;;;4.90;;
74614;SDS011;63121;51.458;-0.110;2023-05-07T06:47:21;13.93;;;4.57;;
74614;SDS011;63121;51.458;-0.110;2023-05-07T06:49:47;11.60;;;4.17;;
74614;SDS011;63121;51.458;-0.110;2023-05-07T06:52:12;12.38;;;4.50;;
74614;SDS011;63121;51.458;-0.110;2023-05-07T06:54:37;11.80;;;4.43;;
74614;SDS011;63121;51.458;-0.110;2023-05-07T06:57:03;12.67;;;4.80;;
74614;SDS011;63121;51.458;-0.110;2023-05-07T06:59:28;11.73;;;4.80;;
74614;SDS011;63121;51.458;-0.110;2023-05-07T07:01:53;12.80;;;5.03;;
74614;SDS011;63121;51.458;-0.110;2023-05-07T07:04:19;10.93;;;4.25;;
74614;SDS011;63121;51.458;-0.110;2023-05-07T07:06:44;11.67;;;4.50;;
74614;SDS011;63121;51.458;-0.110;2023-05-07T07:09:10;10.85;;;4.43;;
74614;SDS011;63121;51.458;-0.110;2023-05-07T07:11:36;11.23;;;4.70;;
74614;SDS011;63121;51.458;-0.110;2023-05-07T07:14:01;12.02;;;4.40;;
74614;SDS011;63121;51.458;-0.110;2023-05-07T07:16:26;11.37;;;4.60;;
74614;SDS011;63121;51.458;-0.110;2023-05-07T07:18:52;14.10;;;4.93;;
74614;SDS011;63121;51.458;-0.110;2023-05-07T07:21:17;12.23;;;4.33;;
74614;SDS011;63121;51.458;-0.110;2023-05-07T07:23:42;10.20;;;3.93;;
74614;SDS011;63121;51.458;-0.110;2023-05-07T07:26:08;10.32;;;4.45;;
74614;SDS011;63121;51.458;-0.110;2023-05-07T07:28:33;11.88;;;4.57;;
74614;SDS011;63121;51.458;-0.110;2023-05-07T07:30:58;10.90;;;4.80;;
74614;SDS011;63121;51.458;-0.110;2023-05-07T07:33:24;12.88;;;5.05;;
74614;SDS011;63121;51.458;-0.110;2023-05-07T07:35:49;11.77;;;4.63;;
74614;SDS011;63121;51.458;-0.110;2023-05-07T07:38:15;15.88;;;4.97;;
74614;SDS011;63121;51.458;-0.110;2023-05-07T07:40:40;11.52;;;4.45;;
74614;SDS011;63121;51.458;-0.110;2023-05-07T07:43:05;11.33;;;4.80;;
74614;SDS011;63121;51.458;-0.110;2023-05-07T07:45:31;11.35;;;4.18;;
74614;SDS011;63121;51.458;-0.110;2023-05-07T07:47:56;12.60;;;4.70;;
74614;SDS011;63121;51.458;-0.110;2023-05-07T07:50:22;13.07;;;4.75;;
74614;SDS011;63121;51.458;-0.110;2023-05-07T07:52:47;12.10;;;4.67;;
74614;SDS011;63121;51.458;-0.110;2023-05-07T07:55:13;12.65;;;5.13;;
74614;SDS011;63121;51.458;-0.110;2023-05-07T07:57:38;15.70;;;5.18;;
74614;SDS011;63121;51.458;-0.110;2023-05-07T08:00:04;12.10;;;5.22;;
74614;SDS011;63121;51.458;-0.110;2023-05-07T08:02:32;12.15;;;4.45;;
74614;SDS011;63121;51.458;-0.110;2023-05-07T08:04:57;11.60;;;4.93;;
74614;SDS011;63121;51.458;-0.110;2023-05-07T08:07:22;11.03;;;4.83;;
74614;SDS011;63121;51.458;-0.110;2023-05-07T08:09:48;12.57;;;4.40;;
74614;SDS011;63121;51.458;-0.110;2023-05-07T08:12:13;10.50;;;4.32;;
74614;SDS011;63121;51.458;-0.110;2023-05-07T08:14:39;10.63;;;4.15;;
74614;SDS011;63121;51.458;-0.110;2023-05-07T08:17:05;10.10;;;4.28;;
74614;SDS011;63121;51.458;-0.110;2023-05-07T08:19:31;10.23;;;3.90;;
74614;SDS011;63121;51.458;-0.110;2023-05-07T08:21:57;10.73;;;4.00;;
74614;SDS011;63121;51.458;-0.110;2023-05-07T08:24:22;10.10;;;3.75;;
74614;SDS011;63121;51.458;-0.110;2023-05-07T08:26:47;10.55;;;4.05;;
74614;SDS011;63121;51.458;-0.110;2023-05-07T08:29:14;11.70;;;4.28;;
74614;SDS011;63121;51.458;-0.110;2023-05-07T08:31:39;9.10;;;3.70;;
74614;SDS011;63121;51.458;-0.110;2023-05-07T08:34:05;8.90;;;3.60;;
74614;SDS011;63121;51.458;-0.110;2023-05-07T08:36:31;9.05;;;3.60;;
74614;SDS011;63121;51.458;-0.110;2023-05-07T08:38:56;9.80;;;3.78;;
74614;SDS011;63121;51.458;-0.110;2023-05-07T08:41:22;8.68;;;3.55;;
74614;SDS011;63121;51.458;-0.110;2023-05-07T08:43:48;9.13;;;3.45;;
74614;SDS011;63121;51.458;-0.110;2023-05-07T08:46:21;7.63;;;3.15;;
74614;SDS011;63121;51.458;-0.110;2023-05-07T08:48:50;8.73;;;3.58;;
74614;SDS011;63121;51.458;-0.110;2023-05-07T08:51:19;9.23;;;3.90;;
74614;SDS011;63121;51.458;-0.110;2023-05-07T08:53:47;8.63;;;3.75;;
74614;SDS011;63121;51.458;-0.110;2023-05-07T08:56:13;9.13;;;3.78;;
74614;SDS011;63121;51.458;-0.110;2023-05-07T08:58:40;7.25;;;2.92;;
74614;SDS011;63121;51.458;-0.110;2023-05-07T09:01:10;9.38;;;3.33;;
74614;SDS011;63121;51.458;-0.110;2023-05-07T09:03:38;9.88;;;3.88;;
74614;SDS011;63121;51.458;-0.110;2023-05-07T09:06:05;8.75;;;3.28;;
74614;SDS011;63121;51.458;-0.110;2023-05-07T09:08:32;9.43;;;3.50;;
74614;SDS011;63121;51.458;-0.110;2023-05-07T09:10:58;9.00;;;3.58;;
74614;SDS011;63121;51.458;-0.110;2023-05-07T09:13:24;10.85;;;3.60;;
74614;SDS011;63121;51.458;-0.110;2023-05-07T09:15:49;8.45;;;3.20;;
74614;SDS011;63121;51.458;-0.110;2023-05-07T09:18:15;10.10;;;3.42;;
74614;SDS011;63121;51.458;-0.110;2023-05-07T09:20:40;8.77;;;3.47;;
74614;SDS011;63121;51.458;-0.110;2023-05-07T09:23:06;8.07;;;3.30;;
74614;SDS011;63121;51.458;-0.110;2023-05-07T09:25:33;9.25;;;3.17;;
74614;SDS011;63121;51.458;-0.110;2023-05-07T09:28:00;8.88;;;3.47;;
74614;SDS011;63121;51.458;-0.110;2023-05-07T09:32:56;8.25;;;2.85;;
74614;SDS011;63121;51.458;-0.110;2023-05-07T09:35:22;8.18;;;2.70;;
74614;SDS011;63121;51.458;-0.110;2023-05-07T09:37:52;7.20;;;2.80;;
74614;SDS011;63121;51.458;-0.110;2023-05-07T09:40:21;8.00;;;2.70;;
74614;SDS011;63121;51.458;-0.110;2023-05-07T09:42:48;7.57;;;3.22;;
74614;SDS011;63121;51.458;-0.110;2023-05-07T09:45:14;8.80;;;3.13;;
74614;SDS011;63121;51.458;-0.110;2023-05-07T09:47:40;7.90;;;3.13;;
74614;SDS011;63121;51.458;-0.110;2023-05-07T09:50:09;7.50;;;2.97;;
74614;SDS011;63121;51.458;-0.110;2023-05-07T09:52:38;7.22;;;2.85;;
74614;SDS011;63121;51.458;-0.110;2023-05-07T09:55:05;7.80;;;2.67;;
74614;SDS011;63121;51.458;-0.110;2023-05-07T09:57:32;7.78;;;3.30;;
74614;SDS011;63121;51.458;-0.110;2023-05-07T09:59:58;8.48;;;3.05;;
74614;SDS011;63121;51.458;-0.110;2023-05-07T10:02:25;7.30;;;2.95;;
74614;SDS011;63121;51.458;-0.110;2023-05-07T10:04:54;10.38;;;3.10;;
74614;SDS011;63121;51.458;-0.110;2023-05-07T10:07:20;8.75;;;3.20;;
74614;SDS011;63121;51.458;-0.110;2023-05-07T10:09:46;8.63;;;3.38;;
74614;SDS011;63121;51.458;-0.110;2023-05-07T10:12:12;7.47;;;2.72;;
74614;SDS011;63121;51.458;-0.110;2023-05-07T10:14:38;8.77;;;3.03;;
74614;SDS011;63121;51.458;-0.110;2023-05-07T10:17:03;6.70;;;2.45;;
74614;SDS011;63121;51.458;-0.110;2023-05-07T10:19:29;7.90;;;2.78;;
74614;SDS011;63121;51.458;-0.110;2023-05-07T10:22:01;7.18;;;2.50;;
74614;SDS011;63121;51.458;-0.110;2023-05-07T10:24:31;7.20;;;2.80;;
74614;SDS011;63121;51.458;-0.110;2023-05-07T10:26:59;7.65;;;2.50;;
74614;SDS011;63121;51.458;-0.110;2023-05-07T10:34:43;5.40;;;2.00;;
74614;SDS011;63121;51.458;-0.110;2023-05-07T10:37:12;5.57;;;2.05;;
74614;SDS011;63121;51.458;-0.110;2023-05-07T10:39:38;6.25;;;2.08;;
74614;SDS011;63121;51.458;-0.110;2023-05-07T10:42:07;6.07;;;2.00;;
74614;SDS011;63121;51.458;-0.110;2023-05-07T10:44:34;5.10;;;1.70;;
74614;SDS011;63121;51.458;-0.110;2023-05-07T10:47:10;6.45;;;2.33;;
74614;SDS011;63121;51.458;-0.110;2023-05-07T10:50:21;5.53;;;2.08;;
74614;SDS011;63121;51.458;-0.110;2023-05-07T10:52:30;5.25;;;1.98;;
74614;SDS011;63121;51.458;-0.110;2023-05-07T10:57:39;7.22;;;2.35;;
74614;SDS011;63121;51.458;-0.110;2023-05-07T11:05:26;6.38;;;2.28;;
74614;SDS011;63121;51.458;-0.110;2023-05-07T11:12:47;4.22;;;1.63;;
74614;SDS011;63121;51.458;-0.110;2023-05-07T11:15:13;8.13;;;1.98;;
74614;SDS011;63121;51.458;-0.110;2023-05-07T11:17:55;5.43;;;2.20;;
74614;SDS011;63121;51.458;-0.110;2023-05-07T11:26:07;6.80;;;2.42;;
74614;SDS011;63121;51.458;-0.110;2023-05-07T11:28:37;6.20;;;2.30;;
74614;SDS011;63121;51.458;-0.110;2023-05-07T11:31:06;6.13;;;1.85;;
74614;SDS011;63121;51.458;-0.110;2023-05-07T11:33:32;7.10;;;2.03;;
74614;SDS011;63121;51.458;-0.110;2023-05-07T11:36:02;6.43;;;2.40;;
74614;SDS011;63121;51.458;-0.110;2023-05-07T11:38:34;6.35;;;2.22;;
74614;SDS011;63121;51.458;-0.110;2023-05-07T11:41:00;5.72;;;2.20;;
74614;SDS011;63121;51.458;-0.110;2023-05-07T11:43:27;6.22;;;2.08;;
74614;SDS011;63121;51.458;-0.110;2023-05-07T11:45:52;6.20;;;1.98;;
74614;SDS011;63121;51.458;-0.110;2023-05-07T11:48:18;5.97;;;2.10;;
74614;SDS011;63121;51.458;-0.110;2023-05-07T11:50:52;5.90;;;2.03;;
74614;SDS011;63121;51.458;-0.110;2023-05-07T11:53:24;6.75;;;2.10;;
74614;SDS011;63121;51.458;-0.110;2023-05-07T11:55:55;6.28;;;2.20;;
74614;SDS011;63121;51.458;-0.110;2023-05-07T11:58:21;6.40;;;2.40;;
74614;SDS011;63121;51.458;-0.110;2023-05-07T12:00:49;6.53;;;2.45;;
74614;SDS011;63121;51.458;-0.110;2023-05-07T12:05:40;6.10;;;2.20;;
74614;SDS011;63121;51.458;-0.110;2023-05-07T12:08:06;6.28;;;2.30;;
74614;SDS011;63121;51.458;-0.110;2023-05-07T12:10:32;6.50;;;2.13;;
74614;SDS011;63121;51.458;-0.110;2023-05-07T12:12:57;5.47;;;2.00;;
74614;SDS011;63121;51.458;-0.110;2023-05-07T12:15:23;6.47;;;2.30;;
74614;SDS011;63121;51.458;-0.110;2023-05-07T12:17:48;6.93;;;2.30;;
74614;SDS011;63121;51.458;-0.110;2023-05-07T12:20:14;7.80;;;2.40;;
74614;SDS011;63121;51.458;-0.110;2023-05-07T12:22:40;6.28;;;2.40;;
74614;SDS011;63121;51.458;-0.110;2023-05-07T12:25:07;6.55;;;2.30;;
74614;SDS011;63121;51.458;-0.110;2023-05-07T12:27:32;6.13;;;2.40;;
74614;SDS011;63121;51.458;-0.110;2023-05-07T12:30:03;6.47;;;2.33;;
74614;SDS011;63121;51.458;-0.110;2023-05-07T12:32:28;6.30;;;2.10;;
74614;SDS011;63121;51.458;-0.110;2023-05-07T12:34:54;6.97;;;2.35;;
74614;SDS011;63121;51.458;-0.110;2023-05-07T12:37:23;5.88;;;2.10;;
74614;SDS011;63121;51.458;-0.110;2023-05-07T12:39:59;7.20;;;2.35;;
74614;SDS011;63121;51.458;-0.110;2023-05-07T12:42:39;6.45;;;2.20;;
74614;SDS011;63121;51.458;-0.110;2023-05-07T12:45:12;8.55;;;2.70;;
74614;SDS011;63121;51.458;-0.110;2023-05-07T12:47:43;7.53;;;2.00;;
74614;SDS011;63121;51.458;-0.110;2023-05-07T12:50:15;5.55;;;1.92;;
74614;SDS011;63121;51.458;-0.110;2023-05-07T12:52:41;6.38;;;2.30;;
74614;SDS011;63121;51.458;-0.110;2023-05-07T12:55:12;6.25;;;2.13;;
74614;SDS011;63121;51.458;-0.110;2023-05-07T12:57:41;5.90;;;2.20;;
74614;SDS011;63121;51.458;-0.110;2023-05-07T13:00:07;7.60;;;2.42;;
74614;SDS011;63121;51.458;-0.110;2023-05-07T13:05:02;5.82;;;2.17;;
74614;SDS011;63121;51.458;-0.110;2023-05-07T13:07:27;5.80;;;2.20;;
74614;SDS011;63121;51.458;-0.110;2023-05-07T13:09:53;6.25;;;2.50;;
74614;SDS011;63121;51.458;-0.110;2023-05-07T13:12:18;7.47;;;2.50;;
74614;SDS011;63121;51.458;-0.110;2023-05-07T13:14:43;7.50;;;3.03;;
74614;SDS011;63121;51.458;-0.110;2023-05-07T13:17:09;7.57;;;2.75;;
74614;SDS011;63121;51.458;-0.110;2023-05-07T13:19:34;6.65;;;2.25;;
74614;SDS011;63121;51.458;-0.110;2023-05-07T13:22:02;6.97;;;2.50;;
74614;SDS011;63121;51.458;-0.110;2023-05-07T13:24:27;6.15;;;2.03;;
74614;SDS011;63121;51.458;-0.110;2023-05-07T13:26:53;6.07;;;2.03;;
74614;SDS011;63121;51.458;-0.110;2023-05-07T13:29:18;6.53;;;2.00;;
74614;SDS011;63121;51.458;-0.110;2023-05-07T13:31:43;7.07;;;3.10;;
74614;SDS011;63121;51.458;-0.110;2023-05-07T13:34:09;6.47;;;2.00;;
74614;SDS011;63121;51.458;-0.110;2023-05-07T13:36:35;6.63;;;2.30;;
74614;SDS011;63121;51.458;-0.110;2023-05-07T13:39:02;5.95;;;2.10;;
74614;SDS011;63121;51.458;-0.110;2023-05-07T13:41:28;5.88;;;1.60;;
74614;SDS011;63121;51.458;-0.110;2023-05-07T13:43:55;5.45;;;1.77;;
74614;SDS011;63121;51.458;-0.110;2023-05-07T13:46:21;5.32;;;2.10;;
74614;SDS011;63121;51.458;-0.110;2023-05-07T13:48:46;4.80;;;2.03;;
74614;SDS011;63121;51.458;-0.110;2023-05-07T13:51:12;4.65;;;1.80;;
74614;SDS011;63121;51.458;-0.110;2023-05-07T13:53:37;5.43;;;1.70;;
74614;SDS011;63121;51.458;-0.110;2023-05-07T13:56:02;5.37;;;1.83;;
74614;SDS011;63121;51.458;-0.110;2023-05-07T13:58:29;6.13;;;2.00;;
74614;SDS011;63121;51.458;-0.110;2023-05-07T14:00:55;5.63;;;1.73;;
74614;SDS011;63121;51.458;-0.110;2023-05-07T14:03:21;6.47;;;2.00;;
74614;SDS011;63121;51.458;-0.110;2023-05-07T14:05:46;5.70;;;1.90;;
74614;SDS011;63121;51.458;-0.110;2023-05-07T14:08:12;5.90;;;2.15;;
74614;SDS011;63121;51.458;-0.110;2023-05-07T14:10:38;5.07;;;1.83;;
74614;SDS011;63121;51.458;-0.110;2023-05-07T14:13:04;5.63;;;2.17;;
74614;SDS011;63121;51.458;-0.110;2023-05-07T14:15:30;5.72;;;2.15;;
74614;SDS011;63121;51.458;-0.110;2023-05-07T14:17:57;4.88;;;1.80;;
74614;SDS011;63121;51.458;-0.110;2023-05-07T14:20:23;4.55;;;1.60;;
74614;SDS011;63121;51.458;-0.110;2023-05-07T14:22:49;4.30;;;1.70;;
74614;SDS011;63121;51.458;-0.110;2023-05-07T14:25:15;5.13;;;1.65;;
74614;SDS011;63121;51.458;-0.110;2023-05-07T14:27:40;5.75;;;1.95;;
74614;SDS011;63121;51.458;-0.110;2023-05-07T14:30:06;5.05;;;1.70;;
74614;SDS011;63121;51.458;-0.110;2023-05-07T14:34:57;3.90;;;1.42;;
74614;SDS011;63121;51.458;-0.110;2023-05-07T14:37:23;4.15;;;1.73;;
74614;SDS011;63121;51.458;-0.110;2023-05-07T14:39:49;8.20;;;1.98;;
74614;SDS011;63121;51.458;-0.110;2023-05-07T14:42:14;4.88;;;1.88;;
74614;SDS011;63121;51.458;-0.110;2023-05-07T14:44:39;6.57;;;1.97;;
74614;SDS011;63121;51.458;-0.110;2023-05-07T14:47:06;5.32;;;1.83;;
74614;SDS011;63121;51.458;-0.110;2023-05-07T14:49:32;5.40;;;1.80;;
74614;SDS011;63121;51.458;-0.110;2023-05-07T14:51:57;3.85;;;1.60;;
74614;SDS011;63121;51.458;-0.110;2023-05-07T14:54:25;4.40;;;1.75;;
74614;SDS011;63121;51.458;-0.110;2023-05-07T14:56:50;3.95;;;1.60;;
74614;SDS011;63121;51.458;-0.110;2023-05-07T14:59:15;4.50;;;1.63;;